Time;durP1;ratioP1;P1;durP2;ratioP2;P2;SDS_P1;SDS_P2;PMS_P1;PMS_P2;Temp;Humidity;BMP_temperature;BMP_pressure;BME280_temperature;BME280_humidity;BME280_pressure;Samples;Min_cycle;Max_cycle;Signal;HPM_P1;HPM_P2
2023/07/20 00:00:00;;;;;;;;;;;22.50;51.40;;;;;;5028389;28;19978;-58
2023/07/20 00:02:27;;;;;;;;;;;22.50;51.30;;;;;;5043983;28;19952;-58
2023/07/20 00:04:54;;;;;;;;;;;22.50;51.40;;;;;;5048688;28;19932;-58
2023/07/20 00:07:21;;;;;;;;;;;22.50;51.40;;;;;;5045808;28;20334;-58
2023/07/20 00:09:48;;;;;;;;;;;22.50;51.30;;;;;;5035863;28;20313;-58
2023/07/20 00:12:15;;;;;;;;;;;22.50;51.40;;;;;;5032583;28;19975;-58
2023/07/20 00:14:41;;;;;;;;;;;22.50;51.30;;;;;;5046201;28;19925;-58
2023/07/20 00:17:10;;;;;;;;;;;22.50;51.40;;;;;;5047858;28;19925;-58
2023/07/20 00:19:37;;;;;;;;;;;22.50;51.40;;;;;;5026680;28;19925;-57
2023/07/20 00:22:04;;;;;;;;;;;22.50;51.30;;;;;;5051418;28;19932;-58
2023/07/20 00:24:32;;;;;;;;;;;22.50;51.30;;;;;;5046377;28;19932;-59
2023/07/20 00:27:00;;;;;;;;;;;22.50;51.30;;;;;;5050374;28;19924;-58
2023/07/20 00:29:27;;;;;;;;;;;22.50;51.30;;;;;;5052084;28;19960;-58
2023/07/20 00:31:54;;;;;;;;;;;22.40;51.30;;;;;;5029055;28;19925;-58
2023/07/20 00:34:22;;;;;;;;;;;22.50;51.30;;;;;;5035554;28;19924;-58
2023/07/20 00:36:49;;;;;;;;;;;22.50;51.40;;;;;;5042348;28;20628;-58
2023/07/20 00:39:16;;;;;;;;;;;22.50;51.40;;;;;;5048460;28;19925;-58
2023/07/20 00:41:43;;;;;;;;;;;22.50;51.30;;;;;;5049644;28;20168;-58
2023/07/20 00:44:10;;;;;;;;;;;22.50;51.90;;;;;;5040215;28;19935;-57
2023/07/20 00:46:37;;;;;;;;;;;22.40;51.20;;;;;;5049395;28;19929;-58
2023/07/20 00:49:04;;;;;;;;;;;22.50;51.30;;;;;;5029154;28;19992;-59
2023/07/20 00:51:32;;;;;;;;;;;22.40;51.20;;;;;;5052294;28;19925;-58
2023/07/20 00:53:59;;;;;;;;;;;22.40;51.20;;;;;;5045513;28;19933;-59
2023/07/20 00:56:26;;;;;;;;;;;22.40;51.20;;;;;;5047659;28;19939;-59
2023/07/20 00:58:53;;;;;;;;;;;22.40;51.20;;;;;;5054855;28;19931;-58
2023/07/20 01:01:19;;;;;;;;;;;22.40;51.20;;;;;;5044122;28;19932;-58
2023/07/20 01:03:47;;;;;;;;;;;22.40;51.20;;;;;;5048868;28;19924;-58
2023/07/20 01:06:16;;;;;;;;;;;22.40;51.10;;;;;;5048775;28;19924;-59
2023/07/20 01:08:46;;;;;;;;;;;22.40;51.10;;;;;;5026699;28;19931;-59
2023/07/20 01:11:14;;;;;;;;;;;22.40;51.10;;;;;;5047539;28;19925;-57
2023/07/20 01:13:41;;;;;;;;;;;22.40;51.10;;;;;;5027779;28;19925;-58
2023/07/20 01:16:07;;;;;;;;;;;22.40;51.10;;;;;;5026274;28;19928;-58
2023/07/20 01:18:34;;;;;;;;;;;22.40;51.10;;;;;;5049453;28;19929;-58
2023/07/20 01:21:02;;;;;;;;;;;22.40;51.10;;;;;;5031264;28;19925;-59
2023/07/20 01:23:35;;;;;;;;;;;22.40;51.20;;;;;;5026923;28;19925;-59
2023/07/20 01:26:07;;;;;;;;;;;22.40;51.20;;;;;;5032846;28;19924;-58
2023/07/20 01:28:36;;;;;;;;;;;22.40;51.20;;;;;;5024770;28;19928;-59
2023/07/20 01:31:24;;;;;;;;;;;22.40;51.20;;;;;;5027028;28;19929;-60
2023/07/20 01:33:51;;;;;;;;;;;22.40;51.30;;;;;;5047169;28;19936;-59
2023/07/20 01:36:18;;;;;;;;;;;22.40;51.30;;;;;;5050950;28;19979;-56
2023/07/20 01:38:45;;;;;;;;;;;22.40;51.30;;;;;;5032199;28;19936;-59
2023/07/20 01:41:12;;;;;;;;;;;22.40;51.30;;;;;;5044907;28;19929;-59
2023/07/20 01:43:38;;;;;;;;;;;22.40;51.30;;;;;;5048231;28;19925;-59
2023/07/20 01:46:05;;;;;;;;;;;22.40;51.40;;;;;;5023198;28;19925;-58
2023/07/20 01:48:33;;;;;;;;;;;22.40;51.40;;;;;;5026345;28;19926;-59
2023/07/20 01:51:00;;;;;;;;;;;22.40;51.40;;;;;;5044096;28;19929;-58
2023/07/20 01:53:27;;;;;;;;;;;22.40;51.40;;;;;;5029086;28;19925;-59
2023/07/20 01:55:54;;;;;;;;;;;22.40;51.40;;;;;;5044385;28;19936;-59
2023/07/20 01:58:21;;;;;;;;;;;22.40;51.40;;;;;;5026547;28;20000;-57
2023/07/20 02:00:47;;;;;;;;;;;22.40;51.50;;;;;;5042566;28;19929;-57
2023/07/20 02:03:14;;;;;;;;;;;22.40;51.50;;;;;;5044912;28;19925;-58
2023/07/20 02:05:44;;;;;;;;;;;22.40;51.50;;;;;;5030918;28;20079;-57
2023/07/20 02:08:11;;;;;;;;;;;22.40;51.50;;;;;;5053392;28;19929;-60
2023/07/20 02:10:37;;;;;;;;;;;22.40;51.50;;;;;;5043576;28;19932;-59
2023/07/20 02:13:04;;;;;;;;;;;22.30;51.50;;;;;;5029376;28;19995;-58
2023/07/20 02:15:31;;;;;;;;;;;22.30;52.00;;;;;;5027624;28;19936;-59
2023/07/20 02:17:58;;;;;;;;;;;22.40;51.60;;;;;;5045378;28;20328;-58
2023/07/20 02:20:24;;;;;;;;;;;22.40;51.60;;;;;;5054454;28;20318;-58
2023/07/20 02:22:53;;;;;;;;;;;22.40;51.60;;;;;;5048310;28;19921;-58
2023/07/20 02:25:20;;;;;;;;;;;22.40;51.60;;;;;;5042925;28;19921;-58
2023/07/20 02:27:47;;;;;;;;;;;22.30;51.50;;;;;;5043026;28;19925;-58
2023/07/20 02:30:14;;;;;;;;;;;22.30;51.60;;;;;;5030400;28;19932;-58
2023/07/20 02:32:44;;;;;;;;;;;22.30;51.60;;;;;;5028095;28;19928;-58
2023/07/20 02:35:10;;;;;;;;;;;22.30;51.70;;;;;;5054926;28;19935;-58
2023/07/20 02:37:37;;;;;;;;;;;22.30;51.60;;;;;;5027904;28;19924;-58
2023/07/20 02:40:07;;;;;;;;;;;22.30;51.70;;;;;;5024072;28;19925;-58
2023/07/20 02:42:34;;;;;;;;;;;22.30;51.70;;;;;;5051623;28;20369;-57
2023/07/20 02:45:00;;;;;;;;;;;22.30;51.70;;;;;;5049987;28;19933;-59
2023/07/20 02:47:27;;;;;;;;;;;22.30;51.70;;;;;;5047667;28;19932;-58
2023/07/20 02:49:54;;;;;;;;;;;22.30;51.70;;;;;;5047447;28;19936;-59
2023/07/20 02:52:21;;;;;;;;;;;22.30;51.70;;;;;;5031402;28;19940;-58
2023/07/20 02:54:48;;;;;;;;;;;22.30;51.80;;;;;;5026329;28;19929;-58
2023/07/20 02:57:16;;;;;;;;;;;22.30;51.80;;;;;;5045708;28;19979;-59
2023/07/20 02:59:42;;;;;;;;;;;22.30;51.80;;;;;;5048120;28;19936;-59
2023/07/20 03:02:10;;;;;;;;;;;22.30;51.80;;;;;;5046411;28;19936;-58
2023/07/20 03:04:37;;;;;;;;;;;22.30;51.80;;;;;;5040909;28;20350;-60
2023/07/20 03:07:05;;;;;;;;;;;22.30;51.80;;;;;;5038832;28;19935;-59
2023/07/20 03:09:32;;;;;;;;;;;22.30;51.80;;;;;;5028425;28;19940;-58
2023/07/20 03:11:58;;;;;;;;;;;22.30;51.80;;;;;;5028924;28;19929;-57
2023/07/20 03:14:26;;;;;;;;;;;22.30;51.70;;;;;;5028427;28;19925;-58
2023/07/20 03:16:53;;;;;;;;;;;22.30;51.70;;;;;;5028244;28;19932;-58
2023/07/20 03:19:20;;;;;;;;;;;22.30;51.70;;;;;;5048812;28;19925;-58
2023/07/20 03:21:47;;;;;;;;;;;22.30;51.70;;;;;;5026114;28;19925;-58
2023/07/20 03:24:13;;;;;;;;;;;22.30;51.70;;;;;;5037682;28;19987;-58
2023/07/20 03:26:40;;;;;;;;;;;22.30;51.70;;;;;;5024473;28;19929;-57
2023/07/20 03:29:08;;;;;;;;;;;22.30;51.70;;;;;;5028457;28;19925;-58
2023/07/20 03:31:36;;;;;;;;;;;22.30;51.70;;;;;;5049655;28;19925;-59
2023/07/20 03:34:03;;;;;;;;;;;22.30;51.70;;;;;;5058795;28;19935;-59
2023/07/20 03:36:31;;;;;;;;;;;22.30;51.70;;;;;;5058200;28;19924;-58
2023/07/20 03:38:58;;;;;;;;;;;22.30;51.60;;;;;;5046549;28;20043;-59
2023/07/20 03:41:25;;;;;;;;;;;22.30;51.70;;;;;;5047165;28;19925;-58
2023/07/20 03:43:52;;;;;;;;;;;22.30;51.70;;;;;;5063074;28;20341;-58
2023/07/20 03:46:18;;;;;;;;;;;22.30;51.70;;;;;;5027809;28;19932;-58
2023/07/20 03:48:47;;;;;;;;;;;22.20;52.20;;;;;;5043821;28;19929;-58
2023/07/20 03:51:14;;;;;;;;;;;22.30;51.70;;;;;;5029636;28;19932;-58
2023/07/20 03:53:40;;;;;;;;;;;22.30;52.30;;;;;;5035854;28;20236;-59
2023/07/20 03:56:07;;;;;;;;;;;22.30;51.70;;;;;;5046554;28;19929;-59
2023/07/20 03:58:34;;;;;;;;;;;22.30;51.70;;;;;;5030063;28;19943;-58
2023/07/20 04:01:01;;;;;;;;;;;22.30;51.70;;;;;;5049145;28;19929;-58
2023/07/20 04:03:27;;;;;;;;;;;22.30;51.70;;;;;;5028522;28;19962;-57
2023/07/20 04:05:56;;;;;;;;;;;22.30;51.70;;;;;;5024837;28;19925;-58
2023/07/20 04:08:23;;;;;;;;;;;22.30;51.70;;;;;;5025574;28;19964;-58
2023/07/20 04:10:50;;;;;;;;;;;22.30;51.70;;;;;;5026813;28;19928;-58
2023/07/20 04:13:17;;;;;;;;;;;22.20;51.60;;;;;;5048173;28;19924;-58
2023/07/20 04:15:44;;;;;;;;;;;22.30;51.80;;;;;;5039713;28;19925;-57
2023/07/20 04:18:11;;;;;;;;;;;22.30;51.80;;;;;;5054338;28;19925;-58
2023/07/20 04:20:37;;;;;;;;;;;22.30;51.80;;;;;;5029081;28;19925;-58
2023/07/20 04:23:06;;;;;;;;;;;22.30;51.80;;;;;;5041295;28;20068;-59
2023/07/20 04:25:38;;;;;;;;;;;22.30;51.80;;;;;;5024855;28;20382;-58
2023/07/20 04:28:08;;;;;;;;;;;22.20;51.70;;;;;;5029644;28;19932;-58
2023/07/20 04:30:35;;;;;;;;;;;22.20;51.70;;;;;;5028837;28;20048;-57
2023/07/20 04:33:02;;;;;;;;;;;22.30;51.80;;;;;;5038386;28;19929;-58
2023/07/20 04:35:43;;;;;;;;;;;22.20;51.60;;;;;;5043931;28;19933;-58
2023/07/20 04:38:12;;;;;;;;;;;22.30;51.70;;;;;;5028133;28;19924;-58
2023/07/20 04:40:38;;;;;;;;;;;22.20;51.60;;;;;;5033467;28;19963;-59
2023/07/20 04:43:05;;;;;;;;;;;22.20;51.60;;;;;;5060312;28;19932;-58
2023/07/20 04:45:32;;;;;;;;;;;22.20;51.60;;;;;;5049022;28;19933;-57
2023/07/20 04:47:59;;;;;;;;;;;22.20;51.60;;;;;;5047533;28;19936;-58
2023/07/20 04:50:26;;;;;;;;;;;22.20;51.60;;;;;;5048247;28;19940;-58
2023/07/20 04:52:53;;;;;;;;;;;22.20;51.50;;;;;;5048598;28;19925;-58
2023/07/20 04:55:21;;;;;;;;;;;22.20;51.50;;;;;;5041982;28;19931;-58
2023/07/20 04:57:48;;;;;;;;;;;22.20;51.60;;;;;;5047617;28;19932;-58
2023/07/20 05:00:15;;;;;;;;;;;22.20;51.60;;;;;;5045255;28;19943;-58
2023/07/20 05:02:42;;;;;;;;;;;22.20;51.60;;;;;;5047328;28;19979;-58
2023/07/20 05:05:09;;;;;;;;;;;22.20;51.70;;;;;;5062716;28;19925;-58
2023/07/20 05:07:35;;;;;;;;;;;22.20;51.70;;;;;;5046672;28;19925;-57
2023/07/20 05:10:02;;;;;;;;;;;22.20;51.70;;;;;;5032910;28;19925;-57
2023/07/20 05:12:30;;;;;;;;;;;22.20;51.70;;;;;;5032783;28;19925;-57
2023/07/20 05:14:57;;;;;;;;;;;22.20;51.80;;;;;;5049313;28;19925;-59
2023/07/20 05:17:24;;;;;;;;;;;22.20;51.80;;;;;;5036437;28;19925;-59
2023/07/20 05:19:51;;;;;;;;;;;22.20;51.90;;;;;;5047240;28;19931;-58
2023/07/20 05:22:18;;;;;;;;;;;22.20;51.90;;;;;;5046586;28;19924;-58
2023/07/20 05:24:44;;;;;;;;;;;22.20;51.90;;;;;;5048461;28;19928;-57
2023/07/20 05:27:12;;;;;;;;;;;22.20;51.90;;;;;;5030219;28;19937;-58
2023/07/20 05:29:42;;;;;;;;;;;22.20;51.90;;;;;;5045016;28;19936;-59
2023/07/20 05:32:09;;;;;;;;;;;22.30;52.00;;;;;;5030678;28;19924;-58
2023/07/20 05:34:36;;;;;;;;;;;22.20;52.00;;;;;;5045744;28;20052;-57
2023/07/20 05:37:03;;;;;;;;;;;22.20;52.00;;;;;;5048270;28;19932;-58
2023/07/20 05:39:30;;;;;;;;;;;22.20;52.00;;;;;;5051170;28;19932;-57
2023/07/20 05:41:56;;;;;;;;;;;22.20;52.10;;;;;;5030397;28;19959;-58
2023/07/20 05:44:23;;;;;;;;;;;22.20;52.10;;;;;;5055509;28;20048;-58
2023/07/20 05:46:51;;;;;;;;;;;22.30;52.20;;;;;;5031612;28;19924;-57
2023/07/20 05:49:18;;;;;;;;;;;22.30;52.20;;;;;;5024992;28;19955;-58
2023/07/20 05:51:46;;;;;;;;;;;22.20;52.20;;;;;;5047063;28;19938;-58
2023/07/20 05:54:13;;;;;;;;;;;22.30;52.30;;;;;;5046001;28;20035;-57
2023/07/20 05:56:40;;;;;;;;;;;22.20;52.20;;;;;;5029414;28;19970;-57
2023/07/20 05:59:06;;;;;;;;;;;22.20;52.20;;;;;;5043201;28;19932;-58
2023/07/20 06:01:33;;;;;;;;;;;22.20;52.20;;;;;;5046318;28;19936;-58
2023/07/20 06:04:03;;;;;;;;;;;22.20;52.20;;;;;;5027993;28;20020;-59
2023/07/20 06:06:30;;;;;;;;;;;22.20;52.20;;;;;;5027550;28;19925;-59
2023/07/20 06:08:56;;;;;;;;;;;22.20;52.20;;;;;;5040620;28;19929;-59
2023/07/20 06:11:23;;;;;;;;;;;22.20;52.30;;;;;;5044252;28;19928;-58
2023/07/20 06:13:50;;;;;;;;;;;22.20;52.30;;;;;;5044224;28;19980;-58
2023/07/20 06:16:17;;;;;;;;;;;22.20;52.30;;;;;;5038589;28;20034;-59
2023/07/20 06:18:45;;;;;;;;;;;22.30;52.40;;;;;;5030816;28;19924;-59
2023/07/20 06:21:13;;;;;;;;;;;22.30;52.50;;;;;;5048304;28;19925;-59
2023/07/20 06:23:40;;;;;;;;;;;22.30;52.50;;;;;;5038580;28;19975;-58
2023/07/20 06:26:06;;;;;;;;;;;22.30;52.50;;;;;;5031486;28;19948;-59
2023/07/20 06:28:33;;;;;;;;;;;22.30;52.50;;;;;;5034558;28;19931;-59
2023/07/20 06:31:00;;;;;;;;;;;22.30;52.50;;;;;;5037706;28;19925;-57
2023/07/20 06:33:27;;;;;;;;;;;22.30;52.50;;;;;;5055302;28;19924;-59
2023/07/20 06:35:54;;;;;;;;;;;22.30;52.50;;;;;;5027120;28;19925;-60
2023/07/20 06:38:23;;;;;;;;;;;22.30;52.50;;;;;;5039505;28;19931;-59
2023/07/20 06:40:50;;;;;;;;;;;22.30;52.60;;;;;;5048062;28;20370;-61
2023/07/20 06:43:16;;;;;;;;;;;22.30;52.60;;;;;;5046859;28;19932;-62
2023/07/20 06:45:43;;;;;;;;;;;22.30;52.60;;;;;;5045549;28;19982;-59
2023/07/20 06:48:10;;;;;;;;;;;22.30;52.60;;;;;;5047737;28;19925;-60
2023/07/20 06:50:36;;;;;;;;;;;22.30;52.60;;;;;;5027332;28;19975;-61
2023/07/20 06:53:04;;;;;;;;;;;22.30;52.60;;;;;;5045358;28;19974;-60
2023/07/20 06:55:32;;;;;;;;;;;22.30;52.60;;;;;;5025489;28;19924;-59
2023/07/20 06:57:59;;;;;;;;;;;22.30;52.50;;;;;;5052416;28;19935;-60
2023/07/20 07:00:25;;;;;;;;;;;22.30;52.50;;;;;;5026565;28;20009;-64
2023/07/20 07:02:52;;;;;;;;;;;22.30;52.40;;;;;;5042429;28;19933;-59
2023/07/20 07:05:19;;;;;;;;;;;22.30;52.20;;;;;;5047150;28;19924;-59
2023/07/20 07:07:46;;;;;;;;;;;22.30;52.10;;;;;;5035333;28;20020;-59
2023/07/20 07:10:13;;;;;;;;;;;22.30;51.80;;;;;;5029290;28;19929;-58
2023/07/20 07:12:42;;;;;;;;;;;22.30;51.40;;;;;;5037119;28;19925;-58
2023/07/20 07:15:10;;;;;;;;;;;22.20;51.20;;;;;;5050514;28;19925;-59
2023/07/20 07:17:37;;;;;;;;;;;22.20;51.30;;;;;;5052333;28;19924;-57
2023/07/20 07:20:04;;;;;;;;;;;22.20;51.60;;;;;;5049072;28;19924;-58
2023/07/20 07:22:31;;;;;;;;;;;22.10;51.60;;;;;;5043008;28;20019;-57
2023/07/20 07:24:57;;;;;;;;;;;22.10;51.70;;;;;;5039286;28;19996;-60
2023/07/20 07:27:24;;;;;;;;;;;22.10;51.80;;;;;;5026158;28;19929;-59
2023/07/20 07:29:52;;;;;;;;;;;22.00;51.70;;;;;;5046765;28;20436;-58
2023/07/20 07:32:19;;;;;;;;;;;22.00;51.70;;;;;;5049405;28;19932;-58
2023/07/20 07:34:47;;;;;;;;;;;22.00;51.70;;;;;;5045979;28;19933;-58
2023/07/20 07:37:14;;;;;;;;;;;22.00;51.60;;;;;;5028774;28;19970;-57
2023/07/20 07:39:41;;;;;;;;;;;22.00;51.60;;;;;;5024105;28;19925;-57
2023/07/20 07:42:07;;;;;;;;;;;22.00;51.50;;;;;;5040963;28;19933;-57
2023/07/20 07:44:34;;;;;;;;;;;22.00;51.40;;;;;;5030476;28;19933;-60
2023/07/20 07:47:03;;;;;;;;;;;22.00;51.30;;;;;;5044821;28;19925;-58
2023/07/20 07:49:29;;;;;;;;;;;22.00;51.10;;;;;;5049891;28;19924;-57
2023/07/20 07:51:56;;;;;;;;;;;22.00;51.00;;;;;;5031668;28;19929;-57
2023/07/20 07:54:23;;;;;;;;;;;22.10;51.00;;;;;;5049378;28;19939;-58
2023/07/20 07:56:51;;;;;;;;;;;22.10;50.90;;;;;;5031852;28;19951;-59
2023/07/20 07:59:18;;;;;;;;;;;22.10;50.80;;;;;;5047324;28;20266;-58
2023/07/20 08:01:44;;;;;;;;;;;22.10;50.70;;;;;;5049713;28;19928;-55
2023/07/20 08:04:13;;;;;;;;;;;22.10;50.60;;;;;;5048818;28;19928;-56
2023/07/20 08:06:39;;;;;;;;;;;22.10;50.50;;;;;;5031967;28;19932;-56
2023/07/20 08:09:06;;;;;;;;;;;22.10;50.40;;;;;;5033565;28;19924;-57
2023/07/20 08:11:33;;;;;;;;;;;22.10;50.30;;;;;;5050337;28;19935;-58
2023/07/20 08:14:01;;;;;;;;;;;22.10;50.30;;;;;;5049168;28;19928;-58
2023/07/20 08:16:27;;;;;;;;;;;22.10;50.30;;;;;;5051829;28;19933;-59
2023/07/20 08:18:54;;;;;;;;;;;22.10;50.20;;;;;;5039314;28;19928;-60
2023/07/20 08:21:22;;;;;;;;;;;22.10;50.10;;;;;;5046840;28;19929;-57
2023/07/20 08:23:49;;;;;;;;;;;22.20;50.00;;;;;;5032714;28;19925;-60
2023/07/20 08:26:16;;;;;;;;;;;22.10;49.90;;;;;;5043894;28;19925;-59
2023/07/20 08:28:43;;;;;;;;;;;22.10;49.90;;;;;;5032960;28;19925;-59
2023/07/20 08:31:10;;;;;;;;;;;22.20;49.90;;;;;;5049122;28;19924;-58
2023/07/20 08:33:37;;;;;;;;;;;22.20;49.80;;;;;;5045195;28;19925;-57
2023/07/20 08:36:03;;;;;;;;;;;22.20;49.80;;;;;;5050103;28;19933;-57
2023/07/20 08:38:32;;;;;;;;;;;22.20;49.70;;;;;;5036893;28;19967;-55
2023/07/20 08:40:59;;;;;;;;;;;22.20;49.70;;;;;;5031469;28;19925;-58
2023/07/20 08:43:26;;;;;;;;;;;22.20;49.60;;;;;;5039858;28;19925;-56
2023/07/20 08:45:54;;;;;;;;;;;22.20;49.60;;;;;;5046735;28;19941;-58
2023/07/20 08:48:21;;;;;;;;;;;22.20;49.50;;;;;;5045300;28;20018;-58
2023/07/20 08:50:48;;;;;;;;;;;22.20;49.40;;;;;;5043927;28;19932;-57
2023/07/20 08:53:14;;;;;;;;;;;22.20;49.30;;;;;;5042378;28;19924;-57
2023/07/20 08:55:43;;;;;;;;;;;22.20;49.20;;;;;;5043980;28;19925;-57
2023/07/20 08:58:09;;;;;;;;;;;22.20;49.10;;;;;;5045201;28;19975;-60
2023/07/20 09:00:36;;;;;;;;;;;22.20;49.00;;;;;;5026698;28;19936;-57
2023/07/20 09:03:03;;;;;;;;;;;22.20;48.90;;;;;;5042366;28;19947;-57
2023/07/20 09:05:30;;;;;;;;;;;22.20;48.90;;;;;;5030362;28;19929;-60
2023/07/20 09:07:57;;;;;;;;;;;22.20;48.90;;;;;;5029943;28;19936;-60
2023/07/20 09:10:24;;;;;;;;;;;22.20;49.50;;;;;;5043677;28;19929;-58
2023/07/20 09:12:52;;;;;;;;;;;22.20;48.90;;;;;;5035146;28;19932;-59
2023/07/20 09:15:19;;;;;;;;;;;22.20;48.80;;;;;;5032393;28;19925;-58
2023/07/20 09:17:46;;;;;;;;;;;22.20;48.90;;;;;;5046286;28;19929;-55
2023/07/20 09:20:13;;;;;;;;;;;22.20;48.80;;;;;;5048615;28;19924;-59
2023/07/20 09:22:40;;;;;;;;;;;22.20;48.90;;;;;;5043961;28;19925;-58
2023/07/20 09:25:07;;;;;;;;;;;22.20;48.90;;;;;;5044821;28;19929;-58
2023/07/20 09:27:37;;;;;;;;;;;22.20;48.90;;;;;;5033055;28;19991;-57
2023/07/20 09:30:08;;;;;;;;;;;22.20;48.90;;;;;;5042131;28;19960;-57
2023/07/20 09:32:39;;;;;;;;;;;22.30;49.00;;;;;;5022193;28;19960;-58
2023/07/20 09:35:06;;;;;;;;;;;22.30;49.00;;;;;;5043762;28;19925;-58
2023/07/20 09:37:33;;;;;;;;;;;22.30;49.00;;;;;;5028209;28;19929;-56
2023/07/20 09:40:00;;;;;;;;;;;22.30;49.00;;;;;;5048750;28;19967;-52
2023/07/20 09:42:27;;;;;;;;;;;22.30;49.00;;;;;;5029353;28;19983;-55
2023/07/20 09:44:54;;;;;;;;;;;22.30;49.00;;;;;;5045355;28;19951;-59
2023/07/20 09:47:26;;;;;;;;;;;22.30;48.90;;;;;;5028069;28;19975;-57
2023/07/20 09:49:59;;;;;;;;;;;22.30;48.90;;;;;;5054298;28;19924;-58
2023/07/20 09:52:26;;;;;;;;;;;22.30;48.70;;;;;;5028350;28;19925;-58
2023/07/20 09:54:52;;;;;;;;;;;22.30;48.90;;;;;;5042890;28;19936;-59
2023/07/20 09:57:19;;;;;;;;;;;22.30;49.10;;;;;;5040515;28;19954;-57
2023/07/20 09:59:46;;;;;;;;;;;22.30;49.30;;;;;;5048850;28;19929;-61
2023/07/20 10:02:14;;;;;;;;;;;22.30;49.30;;;;;;5049710;28;19925;-59
2023/07/20 10:04:43;;;;;;;;;;;22.30;49.50;;;;;;5021006;28;20287;-56
2023/07/20 10:07:11;;;;;;;;;;;22.30;49.60;;;;;;5050357;28;19956;-56
2023/07/20 10:09:38;;;;;;;;;;;22.30;49.70;;;;;;5044308;28;19929;-55
2023/07/20 10:12:05;;;;;;;;;;;22.30;50.00;;;;;;5051910;28;19956;-57
2023/07/20 10:14:33;;;;;;;;;;;22.30;50.00;;;;;;5030080;28;19925;-58
2023/07/20 10:17:00;;;;;;;;;;;22.30;50.10;;;;;;5050587;28;19924;-58
2023/07/20 10:19:28;;;;;;;;;;;22.30;50.30;;;;;;5052217;28;19924;-57
2023/07/20 10:21:57;;;;;;;;;;;22.30;50.40;;;;;;5051396;28;19936;-57
2023/07/20 10:24:24;;;;;;;;;;;22.30;50.40;;;;;;5030959;28;19995;-59
2023/07/20 10:26:51;;;;;;;;;;;22.30;50.50;;;;;;5051090;28;19924;-58
2023/07/20 10:29:18;;;;;;;;;;;22.40;50.60;;;;;;5035574;28;19928;-59
2023/07/20 10:31:45;;;;;;;;;;;22.40;50.60;;;;;;5033313;28;20060;-58
2023/07/20 10:34:12;;;;;;;;;;;22.40;50.60;;;;;;5040074;28;19925;-59
2023/07/20 10:36:44;;;;;;;;;;;22.40;50.60;;;;;;5046366;28;19933;-59
2023/07/20 10:39:16;;;;;;;;;;;22.40;50.60;;;;;;5043761;28;19979;-59
2023/07/20 10:41:43;;;;;;;;;;;22.40;50.50;;;;;;5025476;28;19936;-58
2023/07/20 10:44:11;;;;;;;;;;;22.40;50.40;;;;;;5031225;28;19940;-57
2023/07/20 10:46:43;;;;;;;;;;;22.40;50.30;;;;;;5046685;28;19960;-60
2023/07/20 10:49:10;;;;;;;;;;;22.40;50.20;;;;;;5031079;28;20337;-57
2023/07/20 10:51:40;;;;;;;;;;;22.40;50.10;;;;;;5036138;28;19925;-54
2023/07/20 10:54:08;;;;;;;;;;;22.40;50.10;;;;;;5044359;28;19935;-57
2023/07/20 10:56:36;;;;;;;;;;;22.40;50.00;;;;;;5031683;28;19929;-53
2023/07/20 10:59:03;;;;;;;;;;;22.40;49.90;;;;;;5047663;28;19932;-53
2023/07/20 11:01:31;;;;;;;;;;;22.40;49.80;;;;;;5045611;28;19932;-58
2023/07/20 11:03:58;;;;;;;;;;;22.40;49.70;;;;;;5044136;28;20013;-58
2023/07/20 11:06:33;;;;;;;;;;;22.40;49.60;;;;;;5051289;28;19929;-58
2023/07/20 11:09:04;;;;;;;;;;;22.40;49.50;;;;;;5047131;28;19935;-59
2023/07/20 11:11:34;;;;;;;;;;;22.40;49.20;;;;;;5054244;28;20003;-55
2023/07/20 11:14:02;;;;;;;;;;;22.40;49.20;;;;;;5031835;28;19991;-59
2023/07/20 11:16:39;;;;;;;;;;;22.40;49.10;;;;;;5049821;28;19925;-59
2023/07/20 11:19:06;;;;;;;;;;;22.40;49.10;;;;;;5045727;28;19925;-58
2023/07/20 11:21:36;;;;;;;;;;;22.40;48.90;;;;;;5034686;28;19983;-57
2023/07/20 11:24:04;;;;;;;;;;;22.40;48.70;;;;;;5049725;28;19928;-58
2023/07/20 11:26:30;;;;;;;;;;;22.40;48.60;;;;;;5034330;28;19990;-59
2023/07/20 11:28:57;;;;;;;;;;;22.40;48.70;;;;;;5030850;28;19924;-57
2023/07/20 11:31:26;;;;;;;;;;;22.30;48.70;;;;;;5033236;28;19933;-57
2023/07/20 11:33:53;;;;;;;;;;;22.30;48.80;;;;;;5031647;28;19925;-57
2023/07/20 11:36:19;;;;;;;;;;;22.30;48.80;;;;;;5048194;28;19925;-58
2023/07/20 11:38:46;;;;;;;;;;;22.40;49.00;;;;;;5048903;28;19929;-57
2023/07/20 11:41:13;;;;;;;;;;;22.40;49.10;;;;;;5030456;28;19931;-57
2023/07/20 11:43:40;;;;;;;;;;;22.40;49.30;;;;;;5039688;28;19991;-57
2023/07/20 11:46:07;;;;;;;;;;;22.40;49.40;;;;;;5026956;28;19925;-59
2023/07/20 11:48:36;;;;;;;;;;;22.40;49.50;;;;;;5045104;28;19924;-55
2023/07/20 11:51:02;;;;;;;;;;;22.40;49.60;;;;;;5033424;28;19933;-58
2023/07/20 11:53:29;;;;;;;;;;;22.40;49.60;;;;;;5026689;28;19925;-59
2023/07/20 11:55:56;;;;;;;;;;;22.40;49.60;;;;;;5035901;28;19982;-58
2023/07/20 11:58:23;;;;;;;;;;;22.40;49.70;;;;;;5042185;28;19964;-57
2023/07/20 12:00:50;;;;;;;;;;;22.40;49.70;;;;;;5034076;28;19925;-57
2023/07/20 12:03:16;;;;;;;;;;;22.40;49.70;;;;;;5038302;28;19933;-58
2023/07/20 12:05:45;;;;;;;;;;;22.50;49.90;;;;;;5043689;28;19925;-58
2023/07/20 12:08:11;;;;;;;;;;;22.50;49.90;;;;;;5037495;28;19932;-59
2023/07/20 12:10:42;;;;;;;;;;;22.50;49.90;;;;;;5047675;28;19925;-60
2023/07/20 12:13:10;;;;;;;;;;;22.50;49.90;;;;;;5047307;28;20304;-59
2023/07/20 12:15:37;;;;;;;;;;;22.50;49.90;;;;;;5032104;28;19932;-60
2023/07/20 12:18:05;;;;;;;;;;;22.50;49.90;;;;;;5045847;28;19932;-54
2023/07/20 12:20:32;;;;;;;;;;;22.50;49.90;;;;;;5027586;28;19925;-55
2023/07/20 12:23:01;;;;;;;;;;;22.50;49.90;;;;;;5050097;28;19925;-58
2023/07/20 12:25:34;;;;;;;;;;;22.50;49.80;;;;;;5032584;28;19971;-55
2023/07/20 12:28:02;;;;;;;;;;;22.50;49.80;;;;;;5049071;28;19931;-58
2023/07/20 12:30:29;;;;;;;;;;;22.60;49.80;;;;;;5050295;28;19925;-57
2023/07/20 12:32:56;;;;;;;;;;;22.60;49.60;;;;;;5029261;28;19947;-55
2023/07/20 12:35:23;;;;;;;;;;;22.60;49.40;;;;;;5028904;28;19933;-57
2023/07/20 12:37:51;;;;;;;;;;;22.60;49.10;;;;;;5030485;28;19925;-57
2023/07/20 12:40:19;;;;;;;;;;;22.50;49.00;;;;;;5027683;28;19972;-58
2023/07/20 12:42:46;;;;;;;;;;;22.50;49.10;;;;;;5047856;28;20129;-58
2023/07/20 12:45:13;;;;;;;;;;;22.50;49.10;;;;;;5044361;28;19925;-58
2023/07/20 12:47:40;;;;;;;;;;;22.50;49.20;;;;;;5025342;28;20356;-56
2023/07/20 12:50:07;;;;;;;;;;;22.50;49.10;;;;;;5044734;28;20031;-56
2023/07/20 12:52:36;;;;;;;;;;;22.50;49.00;;;;;;5048004;28;19925;-55
2023/07/20 12:55:03;;;;;;;;;;;22.50;49.00;;;;;;5047694;28;20294;-59
2023/07/20 12:57:31;;;;;;;;;;;22.50;49.00;;;;;;5044328;28;19975;-59
2023/07/20 12:59:58;;;;;;;;;;;22.40;48.90;;;;;;5042391;28;19979;-56
2023/07/20 13:02:25;;;;;;;;;;;22.40;48.90;;;;;;5049439;28;19929;-56
2023/07/20 13:04:52;;;;;;;;;;;22.40;48.90;;;;;;5031747;28;19986;-57
2023/07/20 13:07:19;;;;;;;;;;;22.50;49.00;;;;;;5045278;28;19940;-58
2023/07/20 13:09:46;;;;;;;;;;;22.40;49.00;;;;;;5047370;28;19932;-58
2023/07/20 13:12:13;;;;;;;;;;;22.50;49.10;;;;;;5033503;28;19924;-57
2023/07/20 13:14:41;;;;;;;;;;;22.50;49.20;;;;;;5025828;28;19932;-63
2023/07/20 13:17:10;;;;;;;;;;;22.50;49.30;;;;;;5030953;28;19932;-54
2023/07/20 13:19:36;;;;;;;;;;;22.50;49.30;;;;;;5046917;28;19936;-55
2023/07/20 13:22:04;;;;;;;;;;;22.50;49.40;;;;;;5049388;28;19982;-57
2023/07/20 13:24:30;;;;;;;;;;;22.50;49.40;;;;;;5031257;28;19924;-56
2023/07/20 13:26:57;;;;;;;;;;;22.50;49.20;;;;;;5032320;28;19929;-58
2023/07/20 13:29:25;;;;;;;;;;;22.50;48.90;;;;;;5029254;28;19926;-57
2023/07/20 13:31:53;;;;;;;;;;;22.50;48.50;;;;;;5049787;28;19925;-59
2023/07/20 13:34:20;;;;;;;;;;;22.50;48.30;;;;;;5033248;28;19925;-57
2023/07/20 13:36:46;;;;;;;;;;;22.50;48.30;;;;;;5048790;28;19928;-58
2023/07/20 13:39:13;;;;;;;;;;;22.50;48.10;;;;;;5044244;28;19933;-57
2023/07/20 13:41:40;;;;;;;;;;;22.40;47.90;;;;;;5049860;28;19925;-59
2023/07/20 13:44:07;;;;;;;;;;;22.50;47.90;;;;;;5014829;28;19940;-55
2023/07/20 13:46:34;;;;;;;;;;;22.40;47.80;;;;;;5046477;28;19924;-57
2023/07/20 13:49:02;;;;;;;;;;;22.40;47.80;;;;;;5044275;28;19925;-58
2023/07/20 13:51:29;;;;;;;;;;;22.40;47.80;;;;;;5049529;28;19925;-59
2023/07/20 13:53:56;;;;;;;;;;;22.50;47.90;;;;;;5049170;28;19928;-58
2023/07/20 13:56:22;;;;;;;;;;;22.40;47.90;;;;;;5025721;28;19925;-57
2023/07/20 13:58:49;;;;;;;;;;;22.40;47.70;;;;;;5045733;28;19932;-55
2023/07/20 14:01:17;;;;;;;;;;;22.40;47.60;;;;;;5047084;28;19944;-59
2023/07/20 14:03:44;;;;;;;;;;;22.40;47.60;;;;;;5047121;28;19925;-59
2023/07/20 14:06:13;;;;;;;;;;;22.40;47.60;;;;;;5043432;28;19932;-58
2023/07/20 14:08:40;;;;;;;;;;;22.40;47.60;;;;;;5046963;28;19940;-57
2023/07/20 14:11:07;;;;;;;;;;;22.40;47.60;;;;;;5047286;28;19925;-59
2023/07/20 14:13:34;;;;;;;;;;;22.50;47.70;;;;;;5030450;28;19925;-57
2023/07/20 14:16:01;;;;;;;;;;;22.40;47.70;;;;;;5049256;28;19925;-58